createdAt,value
2019-03-25T00:03:36.673Z,3.20
2019-03-25T00:07:41.826Z,3.50
2019-03-25T00:11:47.087Z,3.10
2019-03-25T00:15:52.237Z,2.37
2019-03-25T00:26:40.617Z,2.30
2019-03-25T00:39:17.725Z,2.50
2019-03-25T00:46:16.248Z,2.80
2019-03-25T00:50:21.345Z,2.63
2019-03-25T00:54:26.473Z,2.33
2019-03-25T01:04:02.350Z,2.53
2019-03-25T01:16:24.565Z,2.70
2019-03-25T01:20:29.729Z,2.63
2019-03-25T01:27:21.980Z,2.47
2019-03-25T01:31:27.102Z,3.23
2019-03-25T01:35:32.246Z,2.57
2019-03-25T01:47:30.131Z,2.57
2019-03-25T01:55:36.598Z,2.77
2019-03-25T02:07:21.140Z,3.13
2019-03-25T02:11:26.216Z,2.40
2019-03-25T02:15:31.440Z,3.00
2019-03-25T02:22:00.167Z,2.97
2019-03-25T02:26:05.508Z,3.33
2019-03-25T02:35:10.974Z,2.40
2019-03-25T02:49:16.773Z,3.13
2019-03-25T02:53:21.881Z,3.87
2019-03-25T03:25:56.895Z,4.93
2019-03-25T03:29:54.289Z,4.07
2019-03-25T03:33:59.413Z,5.47
2019-03-25T03:48:03.214Z,3.50
2019-03-25T03:57:19.182Z,4.37
2019-03-25T04:03:16.361Z,4.13
2019-03-25T04:07:21.465Z,2.90
2019-03-25T04:13:57.252Z,1.80
2019-03-25T04:18:02.457Z,1.50
2019-03-25T04:22:07.592Z,1.70
2019-03-25T04:26:27.276Z,1.60
2019-03-25T04:30:19.569Z,1.57
2019-03-25T04:34:43.088Z,1.20
2019-03-25T04:43:27.183Z,1.00
2019-03-25T04:47:32.384Z,0.70
2019-03-25T04:54:08.494Z,0.70
2019-03-25T05:02:17.886Z,0.50
2019-03-25T05:14:55.501Z,0.70
2019-03-25T05:22:31.867Z,0.87
2019-03-25T05:26:36.987Z,0.57
2019-03-25T05:30:42.100Z,1.20
2019-03-25T05:34:47.207Z,0.80
2019-03-25T05:38:52.280Z,0.73
2019-03-25T05:42:57.492Z,0.87
2019-03-25T05:47:02.629Z,1.10
2019-03-25T05:52:34.636Z,0.90
2019-03-25T05:59:24.960Z,0.90
2019-03-25T06:03:30.081Z,0.50
2019-03-25T06:07:35.213Z,0.73
2019-03-25T06:11:40.328Z,1.33
2019-03-25T06:15:47.272Z,1.93
2019-03-25T06:19:52.367Z,1.27
2019-03-25T06:23:57.526Z,1.40
2019-03-25T06:28:02.638Z,1.50
2019-03-25T06:32:07.748Z,1.07
2019-03-25T06:36:12.858Z,1.40
2019-03-25T06:40:17.987Z,1.07
2019-03-25T06:44:23.053Z,1.07
2019-03-25T06:48:28.165Z,1.00
2019-03-25T06:52:33.277Z,1.53
2019-03-25T06:56:38.424Z,1.40
2019-03-25T07:00:43.545Z,1.10
2019-03-25T07:04:48.657Z,1.53
2019-03-25T07:08:53.783Z,1.00
2019-03-25T07:12:58.938Z,1.97
2019-03-25T07:17:04.036Z,1.37
2019-03-25T07:21:09.178Z,2.00
2019-03-25T07:25:14.332Z,0.93
2019-03-25T07:29:19.587Z,1.30
2019-03-25T07:33:24.711Z,1.63
2019-03-25T07:37:29.905Z,1.40
2019-03-25T07:41:35.031Z,0.73
2019-03-25T07:45:40.107Z,1.93
2019-03-25T07:49:45.242Z,1.10
2019-03-25T07:53:51.132Z,1.80
2019-03-25T07:57:56.390Z,1.60
2019-03-25T08:02:01.620Z,1.50
2019-03-25T08:06:06.716Z,1.60
2019-03-25T08:10:12.062Z,0.73
2019-03-25T08:14:17.194Z,1.43
2019-03-25T08:18:22.330Z,1.77
2019-03-25T08:22:27.514Z,1.53
2019-03-25T08:26:32.643Z,1.40
2019-03-25T08:33:46.606Z,1.63
2019-03-25T08:37:51.714Z,1.70
2019-03-25T08:41:56.849Z,1.50
2019-03-25T08:46:01.965Z,1.40
2019-03-25T08:50:07.566Z,1.47
2019-03-25T08:54:12.803Z,2.10
2019-03-25T08:58:17.943Z,1.90
2019-03-25T09:02:23.164Z,1.40
2019-03-25T09:06:28.268Z,1.40
2019-03-25T09:10:33.789Z,1.63
2019-03-25T09:14:38.942Z,2.03
2019-03-25T09:18:44.088Z,1.90
2019-03-25T09:22:49.697Z,2.13
2019-03-25T09:26:54.786Z,1.57
2019-03-25T09:31:20.748Z,1.17
2019-03-25T09:35:25.866Z,0.77
2019-03-25T09:39:30.969Z,0.93
2019-03-25T09:43:36.076Z,0.90
2019-03-25T09:47:41.232Z,0.97
2019-03-25T09:51:46.313Z,0.60
2019-03-25T09:55:51.431Z,1.10
2019-03-25T09:59:56.568Z,1.27
2019-03-25T10:04:01.670Z,0.80
2019-03-25T10:08:06.824Z,0.63
2019-03-25T10:12:12.004Z,1.00
2019-03-25T10:16:17.186Z,0.93
2019-03-25T10:20:22.317Z,1.60
2019-03-25T10:24:28.139Z,1.30
2019-03-25T10:28:33.438Z,1.73
2019-03-25T10:32:38.520Z,1.40
2019-03-25T10:36:43.666Z,0.87
2019-03-25T10:40:48.836Z,1.50
2019-03-25T10:44:53.982Z,1.05
2019-03-25T10:48:59.093Z,0.70
2019-03-25T10:53:04.233Z,0.80
2019-03-25T10:57:09.363Z,0.60
2019-03-25T11:01:14.605Z,0.72
2019-03-25T11:05:19.759Z,0.90
2019-03-25T11:09:24.876Z,1.10
2019-03-25T11:13:30.071Z,1.22
2019-03-25T11:17:35.296Z,0.60
2019-03-25T11:21:40.452Z,0.55
2019-03-25T11:25:45.629Z,0.60
2019-03-25T11:29:50.739Z,0.80
2019-03-25T11:33:55.860Z,0.90
2019-03-25T11:38:01.000Z,0.90
2019-03-25T11:42:06.154Z,1.30
2019-03-25T11:46:11.319Z,0.90
2019-03-25T11:50:16.526Z,0.98
2019-03-25T11:54:21.675Z,1.27
2019-03-25T11:58:26.828Z,1.27
2019-03-25T12:02:31.949Z,1.10
2019-03-25T12:06:37.602Z,1.30
2019-03-25T12:10:42.820Z,1.20
2019-03-25T12:14:48.044Z,1.47
2019-03-25T12:18:53.158Z,1.30
2019-03-25T12:22:58.345Z,0.93
2019-03-25T12:27:03.440Z,1.60
2019-03-25T12:31:08.574Z,1.30
2019-03-25T12:35:13.931Z,1.10
2019-03-25T12:39:19.052Z,0.80
2019-03-25T12:43:24.360Z,1.30
2019-03-25T12:47:29.627Z,0.93
2019-03-25T12:51:34.769Z,1.40
2019-03-25T12:55:39.887Z,1.40
2019-03-25T12:59:45.009Z,1.50
2019-03-25T13:03:50.154Z,1.72
2019-03-25T13:07:55.321Z,1.73
2019-03-25T13:12:00.467Z,1.42
2019-03-25T13:16:05.632Z,1.90
2019-03-25T13:20:10.929Z,1.95
2019-03-25T13:24:16.121Z,2.17
2019-03-25T13:28:21.222Z,1.45
2019-03-25T13:32:26.357Z,1.92
2019-03-25T13:36:31.529Z,1.50
2019-03-25T13:40:36.669Z,1.82
2019-03-25T13:44:41.839Z,1.12
2019-03-25T13:48:46.948Z,1.15
2019-03-25T13:52:52.093Z,0.88
2019-03-25T13:57:08.101Z,1.22
2019-03-25T14:01:13.237Z,1.00
2019-03-25T14:05:18.437Z,1.50
2019-03-25T14:09:23.556Z,1.63
2019-03-25T14:13:28.748Z,0.90
2019-03-25T14:17:34.007Z,0.90
2019-03-25T14:21:39.185Z,1.40
2019-03-25T14:25:44.354Z,1.12
2019-03-25T14:29:49.534Z,1.30
2019-03-25T14:33:54.645Z,0.80
2019-03-25T14:37:59.795Z,0.72
2019-03-25T14:42:04.974Z,1.00
2019-03-25T14:46:10.149Z,0.60
2019-03-25T14:50:15.420Z,0.40
2019-03-25T14:54:22.010Z,0.50
2019-03-25T14:58:30.617Z,0.62
2019-03-25T15:02:35.867Z,0.40
2019-03-25T15:06:44.089Z,0.60
2019-03-25T15:10:53.612Z,0.70
2019-03-25T15:14:56.216Z,0.70
2019-03-25T15:19:01.454Z,0.70
2019-03-25T15:23:06.707Z,0.85
2019-03-25T15:27:11.970Z,0.93
2019-03-25T15:31:17.162Z,0.85
2019-03-25T15:35:22.648Z,0.75
2019-03-25T15:39:27.938Z,1.13
2019-03-25T15:43:33.115Z,1.37
2019-03-25T15:47:38.519Z,1.20
2019-03-25T15:51:43.969Z,1.40
2019-03-25T15:55:49.205Z,1.35
2019-03-25T15:59:54.318Z,1.17
2019-03-25T16:03:59.493Z,1.37
2019-03-25T16:08:04.657Z,1.40
2019-03-25T16:12:10.185Z,1.57
2019-03-25T16:16:15.267Z,1.50
2019-03-25T16:20:20.453Z,1.35
2019-03-25T16:24:25.689Z,1.60
2019-03-25T16:28:30.913Z,1.42
2019-03-25T16:32:36.096Z,1.60
2019-03-25T16:36:41.311Z,1.60
2019-03-25T16:40:46.505Z,1.90
2019-03-25T16:44:51.723Z,1.80
2019-03-25T16:48:56.918Z,1.98
2019-03-25T16:53:02.108Z,1.92
2019-03-25T16:57:07.261Z,1.92
2019-03-25T17:01:12.458Z,2.00
2019-03-25T17:05:17.660Z,2.58
2019-03-25T17:09:22.842Z,2.15
2019-03-25T17:13:28.071Z,2.27
2019-03-25T17:17:33.406Z,2.10
2019-03-25T17:21:38.591Z,2.20
2019-03-25T17:25:52.707Z,2.45
2019-03-25T17:29:50.691Z,1.92
2019-03-25T17:33:55.905Z,2.25
2019-03-25T17:38:01.077Z,2.08
2019-03-25T17:42:09.766Z,2.40
2019-03-25T17:46:14.934Z,1.82
2019-03-25T17:50:23.686Z,2.17
2019-03-25T17:54:28.857Z,2.27
2019-03-25T17:58:40.691Z,2.87
2019-03-25T18:02:46.220Z,2.52
2019-03-25T18:06:51.437Z,2.37
2019-03-25T18:10:56.634Z,2.47
2019-03-25T18:15:01.845Z,2.62
2019-03-25T18:19:07.171Z,2.23
2019-03-25T18:23:12.370Z,2.30
2019-03-25T18:27:17.972Z,2.60
2019-03-25T18:31:23.192Z,2.45
2019-03-25T18:35:28.358Z,2.00
2019-03-25T18:39:33.503Z,2.00
2019-03-25T18:43:38.722Z,2.42
2019-03-25T18:47:43.922Z,2.60
2019-03-25T18:51:49.089Z,2.20
2019-03-25T18:55:54.223Z,2.12
2019-03-25T18:59:59.356Z,2.20
2019-03-25T19:04:04.552Z,2.25
2019-03-25T19:08:10.509Z,2.25
2019-03-25T19:12:15.842Z,2.10
2019-03-25T19:16:21.140Z,2.80
2019-03-25T19:20:26.494Z,2.17
2019-03-25T19:24:31.903Z,2.35
2019-03-25T19:28:37.465Z,2.65
2019-03-25T19:32:42.732Z,2.10
2019-03-25T19:36:48.051Z,1.87
2019-03-25T19:40:53.403Z,2.47
2019-03-25T19:44:58.620Z,2.25
2019-03-25T19:49:03.697Z,2.30
2019-03-25T19:53:18.560Z,2.43
2019-03-25T19:57:15.638Z,2.25
2019-03-25T20:01:20.782Z,2.40
2019-03-25T20:05:25.882Z,3.30
2019-03-25T20:09:30.974Z,2.67
2019-03-25T20:13:36.156Z,2.85
2019-03-25T20:17:41.298Z,2.55
2019-03-25T20:21:46.484Z,2.77
2019-03-25T20:25:51.671Z,2.70
2019-03-25T20:29:56.815Z,2.60
2019-03-25T20:34:10.981Z,2.80
2019-03-25T20:38:08.665Z,3.00
2019-03-25T20:42:13.864Z,2.72
2019-03-25T20:46:18.960Z,2.93
2019-03-25T20:50:24.156Z,3.58
2019-03-25T20:54:29.216Z,2.80
2019-03-25T20:58:34.339Z,3.17
2019-03-25T21:02:44.893Z,3.27
2019-03-25T21:06:46.213Z,3.52
2019-03-25T21:10:51.528Z,3.50
2019-03-25T21:14:56.643Z,3.70
2019-03-25T21:19:01.817Z,3.60
2019-03-25T21:23:06.932Z,3.50
2019-03-25T21:27:12.080Z,3.70
2019-03-25T21:31:17.272Z,4.10
2019-03-25T21:35:22.379Z,3.87
2019-03-25T21:39:27.587Z,3.87
2019-03-25T21:43:32.709Z,4.70
2019-03-25T21:47:37.840Z,5.20
2019-03-25T21:51:42.932Z,5.30
2019-03-25T21:55:48.054Z,6.17
2019-03-25T21:59:53.285Z,6.83
2019-03-25T22:03:58.349Z,7.20
2019-03-25T22:08:03.463Z,7.87
2019-03-25T22:12:08.600Z,7.63
2019-03-25T22:16:12.767Z,8.93
2019-03-25T22:20:17.897Z,7.92
2019-03-25T22:24:23.060Z,9.28
2019-03-25T22:28:28.188Z,8.30
2019-03-25T22:32:33.316Z,8.75
2019-03-25T22:36:38.409Z,7.72
2019-03-25T22:40:43.521Z,8.35
2019-03-25T22:44:48.653Z,8.03
2019-03-25T22:48:53.792Z,7.53
2019-03-25T22:52:59.232Z,7.03
2019-03-25T22:57:04.329Z,6.30
2019-03-25T23:01:09.472Z,5.45
2019-03-25T23:05:14.591Z,5.10
2019-03-25T23:09:19.716Z,5.20
2019-03-25T23:13:24.854Z,5.83
2019-03-25T23:17:29.961Z,5.15
2019-03-25T23:21:35.100Z,5.12
2019-03-25T23:25:40.250Z,5.10
2019-03-25T23:29:45.374Z,4.75
2019-03-25T23:33:52.478Z,4.92
2019-03-25T23:37:57.236Z,5.15
2019-03-25T23:42:02.363Z,4.80
2019-03-25T23:46:06.641Z,4.53
2019-03-25T23:50:10.929Z,4.53
2019-03-25T23:54:16.450Z,4.47
2019-03-25T23:58:21.541Z,4.53
